AirNav   Everest Fuels
 
 604 users online  

VA33 Beaver Dam Airpark
Surry, Virginia, USA

GOING TO SURRY?


FAA INFORMATION EFFECTIVE 22 APRIL 2021

Location

FAA Identifier: VA33
Lat/Long: 37-02-39.5400N 076-46-05.7000W
37-02.659000N 076-46.095000W
37.0443167,-76.7682500
(estimated)
Elevation: 100 ft. / 30 m (estimated)
Variation: 10W (2000)
From city: 14 miles S of SURRY, VA
Time zone: UTC -4 (UTC -5 during Standard Time)
Zip code: 23846

Airport Operations

Airport use: Private use. Permission required prior to landing
Activation date: 07/2002
Control tower: no
ARTCC: WASHINGTON CENTER
FSS: LEESBURG FLIGHT SERVICE STATION
Attendance: UNATNDD
Wind indicator: yes
Segmented circle: no

Airport Communications

WX ASOS at AKQ (12 nm W): 128.325 (757-899-2300)
WX AWOS-3 at JGG (12 nm N): 120.625 (757-220-8810)
WX ASOS at PHF (14 nm E): PHONE 757-874-3682
  • 122.85

Nearby radio navigation aids

VOR radial/distance  VOR name  Freq  Var
FKNr040/23.0FRANKLIN VORTAC110.6009W
HPWr142/23.8HOPEWELL VORTAC112.0006W
HCMr193/24.4HARCUM VORTAC108.8007W
ORFr296/28.7NORFOLK VORTAC116.9007W
RICr145/38.1RICHMOND VORTAC114.1009W

 
NDB name  Hdg/Dist  Freq  Var  ID
WAKEFIELD083/11.727411WAKQ .- -.- --.-

Airport Services

Fuel available: 100LL MOGAS
FOR FUEL SVC, CALL 757-636-0609.
Airframe service: MAJOR
Powerplant service: MAJOR

Runway Information

Runway 9/27

Dimensions: 2500 x 100 ft. / 762 x 30 m
Surface: turf
RUNWAY 9  RUNWAY 27
Traffic pattern: leftleft
Obstructions: 40 ft. trees, 1040 ft. from runwaynone

Airport Ownership and Management from official FAA records

Ownership: Privately-owned
Owner: BEAVER DAM AIRPARK ESTATES, LLC.
8229 BEECH LAND RD
ELBERON, VA 23846
Phone 757-636-0609
OWNER NAMES ARE C.A. NUCKLES, JR., PHILIP OLAH, ROBERT STRUNK.
Manager: C.A. NUKLES, JR.
8229 BEECH LAND RD
ELBERON, VA 23846
Phone 757-503-1811

Airport Operational Statistics

Aircraft based on the field: 11
Single engine airplanes: 8
Ultralights: 3
    

Additional Remarks

PILOT LOUNGE AND RESTROOM AVBL.
FOR CD CTC NORFOLK APCH AT 757-464-0757.

Instrument Procedures

There are no published instrument procedures at VA33.

Some nearby airports with instrument procedures:

KFAF - Felker Army Airfield (9 nm NE)
KAKQ - Wakefield Municipal Airport (12 nm W)
KJGG - Williamsburg-Jamestown Airport (12 nm N)
KPHF - Newport News/Williamsburg International Airport (14 nm E)
W94 - Camp Peary Landing Strip Airport (17 nm N)
KLFI - Langley Air Force Base (20 nm E)
 
Loc | Ops | Rwys | IFR | FBO | Links
Com | Nav | Svcs | Stats | Notes
Area around VA33 (Beaver Dam Airpark)
 
Road maps at: MapQuest Bing Google
 
Aerial photo
WARNING: Photo may not be current or correct
Aerial photo of VA33 (Beaver Dam Airpark)
Photo taken 01-May-2018
looking east.

Do you have a better or more recent aerial photo of Beaver Dam Airpark that you would like to share? If so, please send us your photo.

 
Sectional chart

 
Airport distance calculator
Flying to Beaver Dam Airpark? Find the distance to fly.

From to VA33

Sunrise and sunset
Times for 12-May-2021
 Local
(UTC-4)
 Zulu
(UTC)
Morning civil twilight05:3409:34
Sunrise06:0210:02
Sunset20:0400:04
Evening civil twilight20:3300:33

Current date and time
Zulu (UTC)  12-May-2021 04:59:38
Local (UTC-4)  12-May-2021 00:59:38
 
METAR
KFAF 
8nm NE 
120356Z AUTO 18006KT 10SM OVC075 16/10 A3011 RMK AO2 SLPNO T01550100 $
KAKQ 
12nm W 
120454Z AUTO 00000KT 10SM OVC075 14/11 A3016 RMK AO2 SLP215 T01390106 402220094
KJGG 
12nm N 
120455Z AUTO 31007KT 10SM OVC065 16/11 A3017 RMK AO1
KPHF 
14nm NE 
120454Z AUTO 28007KT 10SM OVC085 14/09 A3015 RMK AO2 SLP210 T01440094 402060089
KLFI 
19nm E 
120356Z AUTO 20008KT 10SM OVC095 15/10 A3012 RMK AO2 SLPNO T01470099 $
TAF
KFAF 
8nm NE 
120200Z 1202/1308 VRB06KT 9999 FEW040 OVC080 QNH3009INS TX15/1203Z TN10/1211Z LAST NO AMDS AFT 1203 NEXT 1210
KPHF 
14nm NE 
111720Z 1118/1218 VRB04KT P6SM BKN090 FM120200 24005KT P6SM SCT050 FM120400 27009KT P6SM BKN060 FM121400 36011G18KT P6SM OVC100
KLFI 
19nm E 
120100Z 1201/1307 18006KT 9999 SCT050 QNH2998INS BECMG 1206/1207 36010G15KT 9999 BKN040 QNH2992INS BECMG 1209/1210 36015G25KT 9999 BKN060 QNH2988INS BECMG 1217/1218 36012G18KT 9999 SCT100 QNH2991INS BECMG 1222/1223 36012KT 9999 FEW200 QNH3000INS TX25/1217Z TN10/1208Z
NOTAMs
Click for the latest NOTAMs
NOTAMs are issued by the DoD/FAA and will open in a separate window not controlled by AirNav.

 

 
 

Would you like to see your business listed on this page?

 If your business provides an interesting product or service to pilots, flight crews, aircraft, or users of the Beaver Dam Airpark, you should consider listing it here.  To start the listing process, click on the button below
 
Add a business
 

Other Pages about Beaver Dam Airpark

Update a link
 
Copyright © AirNav, LLC. All rights reserved. Privacy Policy  Contact